sensor_id;sensor_type;location;lat;lon;timestamp;P1;durP1;ratioP1;P2;durP2;ratioP2
25667;SDS011;18003;-33.830;151.202;2023-02-28T00:00:43;6.58;;;2.42;;
25667;SDS011;18003;-33.830;151.202;2023-02-28T00:03:13;7.85;;;2.67;;
25667;SDS011;18003;-33.830;151.202;2023-02-28T00:05:43;8.43;;;2.60;;
25667;SDS011;18003;-33.830;151.202;2023-02-28T00:08:13;7.67;;;2.40;;
25667;SDS011;18003;-33.830;151.202;2023-02-28T00:10:43;6.75;;;2.80;;
25667;SDS011;18003;-33.830;151.202;2023-02-28T00:13:13;7.95;;;2.52;;
25667;SDS011;18003;-33.830;151.202;2023-02-28T00:15:43;5.97;;;2.42;;
25667;SDS011;18003;-33.830;151.202;2023-02-28T00:18:13;6.60;;;2.47;;
25667;SDS011;18003;-33.830;151.202;2023-02-28T00:20:43;7.90;;;2.80;;
25667;SDS011;18003;-33.830;151.202;2023-02-28T00:23:13;6.25;;;2.72;;
25667;SDS011;18003;-33.830;151.202;2023-02-28T00:25:43;5.72;;;2.77;;
25667;SDS011;18003;-33.830;151.202;2023-02-28T00:28:13;4.83;;;2.30;;
25667;SDS011;18003;-33.830;151.202;2023-02-28T00:30:43;5.95;;;2.40;;
25667;SDS011;18003;-33.830;151.202;2023-02-28T00:33:13;3.55;;;2.00;;
25667;SDS011;18003;-33.830;151.202;2023-02-28T00:35:43;7.87;;;2.52;;
25667;SDS011;18003;-33.830;151.202;2023-02-28T00:38:13;7.28;;;2.52;;
25667;SDS011;18003;-33.830;151.202;2023-02-28T00:40:44;5.17;;;2.42;;
25667;SDS011;18003;-33.830;151.202;2023-02-28T00:43:14;6.97;;;2.02;;
25667;SDS011;18003;-33.830;151.202;2023-02-28T00:45:44;4.85;;;2.30;;
25667;SDS011;18003;-33.830;151.202;2023-02-28T00:48:14;7.22;;;2.33;;
25667;SDS011;18003;-33.830;151.202;2023-02-28T00:50:44;6.30;;;2.37;;
25667;SDS011;18003;-33.830;151.202;2023-02-28T00:53:15;6.05;;;2.47;;
25667;SDS011;18003;-33.830;151.202;2023-02-28T00:55:45;5.85;;;2.30;;
25667;SDS011;18003;-33.830;151.202;2023-02-28T00:58:15;4.58;;;2.30;;
25667;SDS011;18003;-33.830;151.202;2023-02-28T01:00:45;5.90;;;2.60;;
25667;SDS011;18003;-33.830;151.202;2023-02-28T01:03:18;9.18;;;2.75;;
25667;SDS011;18003;-33.830;151.202;2023-02-28T01:05:49;8.13;;;2.87;;
25667;SDS011;18003;-33.830;151.202;2023-02-28T01:08:21;5.85;;;2.60;;
25667;SDS011;18003;-33.830;151.202;2023-02-28T01:10:51;6.42;;;2.37;;
25667;SDS011;18003;-33.830;151.202;2023-02-28T01:13:21;6.62;;;2.70;;
25667;SDS011;18003;-33.830;151.202;2023-02-28T01:15:52;3.83;;;2.30;;
25667;SDS011;18003;-33.830;151.202;2023-02-28T01:18:23;5.85;;;2.62;;
25667;SDS011;18003;-33.830;151.202;2023-02-28T01:20:53;6.17;;;2.50;;
25667;SDS011;18003;-33.830;151.202;2023-02-28T01:23:23;5.25;;;2.70;;
25667;SDS011;18003;-33.830;151.202;2023-02-28T01:25:53;7.87;;;2.80;;
25667;SDS011;18003;-33.830;151.202;2023-02-28T01:28:23;5.37;;;2.70;;
25667;SDS011;18003;-33.830;151.202;2023-02-28T01:30:53;4.40;;;2.55;;
25667;SDS011;18003;-33.830;151.202;2023-02-28T01:33:23;4.10;;;2.37;;
25667;SDS011;18003;-33.830;151.202;2023-02-28T01:36:04;6.75;;;2.45;;
25667;SDS011;18003;-33.830;151.202;2023-02-28T01:38:35;7.60;;;2.80;;
25667;SDS011;18003;-33.830;151.202;2023-02-28T01:41:05;4.67;;;2.25;;
25667;SDS011;18003;-33.830;151.202;2023-02-28T01:46:17;7.42;;;2.47;;
25667;SDS011;18003;-33.830;151.202;2023-02-28T01:48:48;4.33;;;2.30;;
25667;SDS011;18003;-33.830;151.202;2023-02-28T01:51:26;5.17;;;2.22;;
25667;SDS011;18003;-33.830;151.202;2023-02-28T01:54:00;6.55;;;2.40;;
25667;SDS011;18003;-33.830;151.202;2023-02-28T01:56:34;5.95;;;2.75;;
25667;SDS011;18003;-33.830;151.202;2023-02-28T01:59:05;3.83;;;2.70;;
25667;SDS011;18003;-33.830;151.202;2023-02-28T02:01:35;8.38;;;2.80;;
25667;SDS011;18003;-33.830;151.202;2023-02-28T02:04:06;4.75;;;2.47;;
25667;SDS011;18003;-33.830;151.202;2023-02-28T02:06:44;6.87;;;2.25;;
25667;SDS011;18003;-33.830;151.202;2023-02-28T02:09:11;4.80;;;2.10;;
25667;SDS011;18003;-33.830;151.202;2023-02-28T02:11:41;6.47;;;2.33;;
25667;SDS011;18003;-33.830;151.202;2023-02-28T02:22:43;7.35;;;2.12;;
25667;SDS011;18003;-33.830;151.202;2023-02-28T02:28:12;7.50;;;2.12;;
25667;SDS011;18003;-33.830;151.202;2023-02-28T02:36:38;8.95;;;2.00;;
25667;SDS011;18003;-33.830;151.202;2023-02-28T02:39:14;6.55;;;1.98;;
25667;SDS011;18003;-33.830;151.202;2023-02-28T02:41:52;5.58;;;2.20;;
25667;SDS011;18003;-33.830;151.202;2023-02-28T02:44:23;5.65;;;2.30;;
25667;SDS011;18003;-33.830;151.202;2023-02-28T02:46:55;3.27;;;1.90;;
25667;SDS011;18003;-33.830;151.202;2023-02-28T02:49:30;4.65;;;2.00;;
25667;SDS011;18003;-33.830;151.202;2023-02-28T02:52:08;8.88;;;2.15;;
25667;SDS011;18003;-33.830;151.202;2023-02-28T02:54:33;5.80;;;2.30;;
25667;SDS011;18003;-33.830;151.202;2023-02-28T02:57:05;7.42;;;2.10;;
25667;SDS011;18003;-33.830;151.202;2023-02-28T02:59:42;5.85;;;2.27;;
25667;SDS011;18003;-33.830;151.202;2023-02-28T03:02:11;6.53;;;2.40;;
25667;SDS011;18003;-33.830;151.202;2023-02-28T03:04:57;4.53;;;2.10;;
25667;SDS011;18003;-33.830;151.202;2023-02-28T03:07:27;5.42;;;2.50;;
25667;SDS011;18003;-33.830;151.202;2023-02-28T03:09:58;5.42;;;2.08;;
25667;SDS011;18003;-33.830;151.202;2023-02-28T03:12:32;6.62;;;2.70;;
25667;SDS011;18003;-33.830;151.202;2023-02-28T03:15:14;7.03;;;2.80;;
25667;SDS011;18003;-33.830;151.202;2023-02-28T03:20:30;7.00;;;2.75;;
25667;SDS011;18003;-33.830;151.202;2023-02-28T03:28:24;6.08;;;2.15;;
25667;SDS011;18003;-33.830;151.202;2023-02-28T03:31:03;2.47;;;2.10;;
25667;SDS011;18003;-33.830;151.202;2023-02-28T03:33:36;6.03;;;2.62;;
25667;SDS011;18003;-33.830;151.202;2023-02-28T03:36:10;4.05;;;2.17;;
25667;SDS011;18003;-33.830;151.202;2023-02-28T03:41:27;5.40;;;2.27;;
25667;SDS011;18003;-33.830;151.202;2023-02-28T03:43:58;5.83;;;2.30;;
25667;SDS011;18003;-33.830;151.202;2023-02-28T03:46:39;6.28;;;1.80;;
25667;SDS011;18003;-33.830;151.202;2023-02-28T03:49:18;5.97;;;2.08;;
25667;SDS011;18003;-33.830;151.202;2023-02-28T03:51:48;4.53;;;2.00;;
25667;SDS011;18003;-33.830;151.202;2023-02-28T03:54:22;4.50;;;2.02;;
25667;SDS011;18003;-33.830;151.202;2023-02-28T03:56:53;5.22;;;2.00;;
25667;SDS011;18003;-33.830;151.202;2023-02-28T03:59:37;4.47;;;2.00;;
25667;SDS011;18003;-33.830;151.202;2023-02-28T04:02:08;4.13;;;1.80;;
25667;SDS011;18003;-33.830;151.202;2023-02-28T04:04:38;3.52;;;1.70;;
25667;SDS011;18003;-33.830;151.202;2023-02-28T04:07:09;4.45;;;1.50;;
25667;SDS011;18003;-33.830;151.202;2023-02-28T04:09:40;3.83;;;1.70;;
25667;SDS011;18003;-33.830;151.202;2023-02-28T04:12:11;3.80;;;1.70;;
25667;SDS011;18003;-33.830;151.202;2023-02-28T04:14:41;5.28;;;1.90;;
25667;SDS011;18003;-33.830;151.202;2023-02-28T04:17:11;4.50;;;1.75;;
25667;SDS011;18003;-33.830;151.202;2023-02-28T04:19:41;3.58;;;1.47;;
25667;SDS011;18003;-33.830;151.202;2023-02-28T04:22:11;4.17;;;1.90;;
25667;SDS011;18003;-33.830;151.202;2023-02-28T04:24:41;4.20;;;1.57;;
25667;SDS011;18003;-33.830;151.202;2023-02-28T04:27:11;4.05;;;1.75;;
25667;SDS011;18003;-33.830;151.202;2023-02-28T04:29:42;4.45;;;1.82;;
25667;SDS011;18003;-33.830;151.202;2023-02-28T04:32:12;4.97;;;1.95;;
25667;SDS011;18003;-33.830;151.202;2023-02-28T04:34:42;5.72;;;1.90;;
25667;SDS011;18003;-33.830;151.202;2023-02-28T04:37:12;5.05;;;1.87;;
25667;SDS011;18003;-33.830;151.202;2023-02-28T04:39:42;3.37;;;1.60;;
25667;SDS011;18003;-33.830;151.202;2023-02-28T04:42:12;3.37;;;1.52;;
25667;SDS011;18003;-33.830;151.202;2023-02-28T04:44:43;5.58;;;1.70;;
25667;SDS011;18003;-33.830;151.202;2023-02-28T04:47:13;3.47;;;1.77;;
25667;SDS011;18003;-33.830;151.202;2023-02-28T04:49:43;3.50;;;1.70;;
25667;SDS011;18003;-33.830;151.202;2023-02-28T04:52:14;3.80;;;1.80;;
25667;SDS011;18003;-33.830;151.202;2023-02-28T04:54:44;4.55;;;1.82;;
25667;SDS011;18003;-33.830;151.202;2023-02-28T04:57:14;3.05;;;1.50;;
25667;SDS011;18003;-33.830;151.202;2023-02-28T04:59:44;2.98;;;1.80;;
25667;SDS011;18003;-33.830;151.202;2023-02-28T05:02:14;4.33;;;1.70;;
25667;SDS011;18003;-33.830;151.202;2023-02-28T05:04:44;5.53;;;2.22;;
25667;SDS011;18003;-33.830;151.202;2023-02-28T05:07:14;3.17;;;1.75;;
25667;SDS011;18003;-33.830;151.202;2023-02-28T05:09:45;3.77;;;1.82;;
25667;SDS011;18003;-33.830;151.202;2023-02-28T05:12:15;2.60;;;1.70;;
25667;SDS011;18003;-33.830;151.202;2023-02-28T05:14:45;4.30;;;2.00;;
25667;SDS011;18003;-33.830;151.202;2023-02-28T05:17:15;4.20;;;1.80;;
25667;SDS011;18003;-33.830;151.202;2023-02-28T05:19:45;5.58;;;2.00;;
25667;SDS011;18003;-33.830;151.202;2023-02-28T05:22:15;3.90;;;2.00;;
25667;SDS011;18003;-33.830;151.202;2023-02-28T05:24:45;3.70;;;1.87;;
25667;SDS011;18003;-33.830;151.202;2023-02-28T05:27:15;2.80;;;1.75;;
25667;SDS011;18003;-33.830;151.202;2023-02-28T05:29:45;4.28;;;1.87;;
25667;SDS011;18003;-33.830;151.202;2023-02-28T05:32:16;4.87;;;2.10;;
25667;SDS011;18003;-33.830;151.202;2023-02-28T05:34:46;4.20;;;1.85;;
25667;SDS011;18003;-33.830;151.202;2023-02-28T05:37:16;3.45;;;1.70;;
25667;SDS011;18003;-33.830;151.202;2023-02-28T05:39:46;3.80;;;1.85;;
25667;SDS011;18003;-33.830;151.202;2023-02-28T05:42:16;4.97;;;1.80;;
25667;SDS011;18003;-33.830;151.202;2023-02-28T05:44:46;4.45;;;2.08;;
25667;SDS011;18003;-33.830;151.202;2023-02-28T05:47:17;6.70;;;2.17;;
25667;SDS011;18003;-33.830;151.202;2023-02-28T05:49:47;5.67;;;2.12;;
25667;SDS011;18003;-33.830;151.202;2023-02-28T05:52:17;4.72;;;2.10;;
25667;SDS011;18003;-33.830;151.202;2023-02-28T05:54:47;3.90;;;1.98;;
25667;SDS011;18003;-33.830;151.202;2023-02-28T05:57:17;4.72;;;1.92;;
25667;SDS011;18003;-33.830;151.202;2023-02-28T05:59:47;4.10;;;2.02;;
25667;SDS011;18003;-33.830;151.202;2023-02-28T06:02:17;3.90;;;2.10;;
25667;SDS011;18003;-33.830;151.202;2023-02-28T06:04:47;5.50;;;2.40;;
25667;SDS011;18003;-33.830;151.202;2023-02-28T06:07:17;5.05;;;2.00;;
25667;SDS011;18003;-33.830;151.202;2023-02-28T06:09:48;3.92;;;2.00;;
25667;SDS011;18003;-33.830;151.202;2023-02-28T06:12:18;4.70;;;2.05;;
25667;SDS011;18003;-33.830;151.202;2023-02-28T06:14:48;4.20;;;2.20;;
25667;SDS011;18003;-33.830;151.202;2023-02-28T06:17:18;6.53;;;2.50;;
25667;SDS011;18003;-33.830;151.202;2023-02-28T06:19:48;3.58;;;2.10;;
25667;SDS011;18003;-33.830;151.202;2023-02-28T06:22:18;3.47;;;1.85;;
25667;SDS011;18003;-33.830;151.202;2023-02-28T06:24:48;5.72;;;1.98;;
25667;SDS011;18003;-33.830;151.202;2023-02-28T06:27:19;3.90;;;2.00;;
25667;SDS011;18003;-33.830;151.202;2023-02-28T06:29:52;3.42;;;1.80;;
25667;SDS011;18003;-33.830;151.202;2023-02-28T06:32:22;4.20;;;2.00;;
25667;SDS011;18003;-33.830;151.202;2023-02-28T06:34:52;4.25;;;1.98;;
25667;SDS011;18003;-33.830;151.202;2023-02-28T06:37:23;5.92;;;2.10;;
25667;SDS011;18003;-33.830;151.202;2023-02-28T06:39:53;7.42;;;2.52;;
25667;SDS011;18003;-33.830;151.202;2023-02-28T06:42:23;7.75;;;2.62;;
25667;SDS011;18003;-33.830;151.202;2023-02-28T06:44:55;10.18;;;2.33;;
25667;SDS011;18003;-33.830;151.202;2023-02-28T06:47:26;4.95;;;2.22;;
25667;SDS011;18003;-33.830;151.202;2023-02-28T06:49:56;5.08;;;2.20;;
25667;SDS011;18003;-33.830;151.202;2023-02-28T06:52:27;5.45;;;2.20;;
25667;SDS011;18003;-33.830;151.202;2023-02-28T06:54:57;5.78;;;2.35;;
25667;SDS011;18003;-33.830;151.202;2023-02-28T06:57:28;4.87;;;1.95;;
25667;SDS011;18003;-33.830;151.202;2023-02-28T06:59:59;6.47;;;2.20;;
25667;SDS011;18003;-33.830;151.202;2023-02-28T07:02:30;5.47;;;2.33;;
25667;SDS011;18003;-33.830;151.202;2023-02-28T07:05:00;4.12;;;2.00;;
25667;SDS011;18003;-33.830;151.202;2023-02-28T07:07:30;4.78;;;2.20;;
25667;SDS011;18003;-33.830;151.202;2023-02-28T07:10:02;3.90;;;2.00;;
25667;SDS011;18003;-33.830;151.202;2023-02-28T07:12:32;4.23;;;2.07;;
25667;SDS011;18003;-33.830;151.202;2023-02-28T07:15:02;6.62;;;2.22;;
25667;SDS011;18003;-33.830;151.202;2023-02-28T07:17:33;5.65;;;2.10;;
25667;SDS011;18003;-33.830;151.202;2023-02-28T07:20:03;6.47;;;2.12;;
25667;SDS011;18003;-33.830;151.202;2023-02-28T07:22:34;6.78;;;2.47;;
25667;SDS011;18003;-33.830;151.202;2023-02-28T07:25:04;5.53;;;2.00;;
25667;SDS011;18003;-33.830;151.202;2023-02-28T07:27:34;6.60;;;2.65;;
25667;SDS011;18003;-33.830;151.202;2023-02-28T07:30:04;5.30;;;2.02;;
25667;SDS011;18003;-33.830;151.202;2023-02-28T07:32:35;4.40;;;2.25;;
25667;SDS011;18003;-33.830;151.202;2023-02-28T07:35:05;4.45;;;2.40;;
25667;SDS011;18003;-33.830;151.202;2023-02-28T07:37:36;5.65;;;2.27;;
25667;SDS011;18003;-33.830;151.202;2023-02-28T07:40:06;5.20;;;1.72;;
25667;SDS011;18003;-33.830;151.202;2023-02-28T07:42:41;2.50;;;1.70;;
25667;SDS011;18003;-33.830;151.202;2023-02-28T07:45:11;4.45;;;2.10;;
25667;SDS011;18003;-33.830;151.202;2023-02-28T07:47:41;4.70;;;1.98;;
25667;SDS011;18003;-33.830;151.202;2023-02-28T07:50:13;4.97;;;2.02;;
25667;SDS011;18003;-33.830;151.202;2023-02-28T07:52:44;5.40;;;2.42;;
25667;SDS011;18003;-33.830;151.202;2023-02-28T07:55:14;6.10;;;2.35;;
25667;SDS011;18003;-33.830;151.202;2023-02-28T07:57:44;4.65;;;1.98;;
25667;SDS011;18003;-33.830;151.202;2023-02-28T08:00:14;6.92;;;2.40;;
25667;SDS011;18003;-33.830;151.202;2023-02-28T08:02:44;6.40;;;2.20;;
25667;SDS011;18003;-33.830;151.202;2023-02-28T08:05:15;6.03;;;2.20;;
25667;SDS011;18003;-33.830;151.202;2023-02-28T08:07:45;7.47;;;2.30;;
25667;SDS011;18003;-33.830;151.202;2023-02-28T08:12:45;5.92;;;2.12;;
25667;SDS011;18003;-33.830;151.202;2023-02-28T08:15:15;5.78;;;2.33;;
25667;SDS011;18003;-33.830;151.202;2023-02-28T08:17:45;5.35;;;2.27;;
25667;SDS011;18003;-33.830;151.202;2023-02-28T08:20:15;7.15;;;2.10;;
25667;SDS011;18003;-33.830;151.202;2023-02-28T08:22:46;4.58;;;1.82;;
25667;SDS011;18003;-33.830;151.202;2023-02-28T08:25:16;3.92;;;2.12;;
25667;SDS011;18003;-33.830;151.202;2023-02-28T08:27:46;5.85;;;2.10;;
25667;SDS011;18003;-33.830;151.202;2023-02-28T08:30:17;4.40;;;2.22;;
25667;SDS011;18003;-33.830;151.202;2023-02-28T08:32:47;6.00;;;1.92;;
25667;SDS011;18003;-33.830;151.202;2023-02-28T08:35:17;4.35;;;1.80;;
25667;SDS011;18003;-33.830;151.202;2023-02-28T08:37:47;3.70;;;1.90;;
25667;SDS011;18003;-33.830;151.202;2023-02-28T08:40:18;7.05;;;2.25;;
25667;SDS011;18003;-33.830;151.202;2023-02-28T08:42:48;7.53;;;2.30;;
25667;SDS011;18003;-33.830;151.202;2023-02-28T08:45:18;6.70;;;2.33;;
25667;SDS011;18003;-33.830;151.202;2023-02-28T08:47:48;4.20;;;2.02;;
25667;SDS011;18003;-33.830;151.202;2023-02-28T08:50:19;6.12;;;2.50;;
25667;SDS011;18003;-33.830;151.202;2023-02-28T08:52:50;5.80;;;2.47;;
25667;SDS011;18003;-33.830;151.202;2023-02-28T08:55:20;6.07;;;2.13;;
25667;SDS011;18003;-33.830;151.202;2023-02-28T08:57:50;6.08;;;2.27;;
25667;SDS011;18003;-33.830;151.202;2023-02-28T09:00:21;5.95;;;2.22;;
25667;SDS011;18003;-33.830;151.202;2023-02-28T09:02:52;5.53;;;2.10;;
25667;SDS011;18003;-33.830;151.202;2023-02-28T09:05:22;5.17;;;2.08;;
25667;SDS011;18003;-33.830;151.202;2023-02-28T09:07:52;7.37;;;2.30;;
25667;SDS011;18003;-33.830;151.202;2023-02-28T09:10:22;5.47;;;2.00;;
25667;SDS011;18003;-33.830;151.202;2023-02-28T09:12:52;5.92;;;2.22;;
25667;SDS011;18003;-33.830;151.202;2023-02-28T09:15:23;5.25;;;2.30;;
25667;SDS011;18003;-33.830;151.202;2023-02-28T09:17:53;5.20;;;2.45;;
25667;SDS011;18003;-33.830;151.202;2023-02-28T09:20:23;5.25;;;2.17;;
25667;SDS011;18003;-33.830;151.202;2023-02-28T09:22:53;5.25;;;2.17;;
25667;SDS011;18003;-33.830;151.202;2023-02-28T09:25:23;5.22;;;2.15;;
25667;SDS011;18003;-33.830;151.202;2023-02-28T09:27:53;5.78;;;2.08;;
25667;SDS011;18003;-33.830;151.202;2023-02-28T09:30:24;8.13;;;2.37;;
25667;SDS011;18003;-33.830;151.202;2023-02-28T09:32:54;6.03;;;2.23;;
25667;SDS011;18003;-33.830;151.202;2023-02-28T09:35:24;6.47;;;2.22;;
25667;SDS011;18003;-33.830;151.202;2023-02-28T09:37:54;5.12;;;2.42;;
25667;SDS011;18003;-33.830;151.202;2023-02-28T09:40:25;4.50;;;2.20;;
25667;SDS011;18003;-33.830;151.202;2023-02-28T09:42:55;5.47;;;2.20;;
25667;SDS011;18003;-33.830;151.202;2023-02-28T09:45:36;6.08;;;2.35;;
25667;SDS011;18003;-33.830;151.202;2023-02-28T09:48:10;7.75;;;2.58;;
25667;SDS011;18003;-33.830;151.202;2023-02-28T09:50:48;7.78;;;2.60;;
25667;SDS011;18003;-33.830;151.202;2023-02-28T09:53:22;5.50;;;2.02;;
25667;SDS011;18003;-33.830;151.202;2023-02-28T09:56:02;7.47;;;2.60;;
25667;SDS011;18003;-33.830;151.202;2023-02-28T09:58:42;5.50;;;2.30;;
25667;SDS011;18003;-33.830;151.202;2023-02-28T10:01:17;5.00;;;2.60;;
25667;SDS011;18003;-33.830;151.202;2023-02-28T10:06:49;6.83;;;2.62;;
25667;SDS011;18003;-33.830;151.202;2023-02-28T10:09:21;6.53;;;2.50;;
25667;SDS011;18003;-33.830;151.202;2023-02-28T10:11:54;5.42;;;2.27;;
25667;SDS011;18003;-33.830;151.202;2023-02-28T10:14:26;7.03;;;2.58;;
25667;SDS011;18003;-33.830;151.202;2023-02-28T10:17:02;6.03;;;2.52;;
25667;SDS011;18003;-33.830;151.202;2023-02-28T10:19:55;9.83;;;3.20;;
25667;SDS011;18003;-33.830;151.202;2023-02-28T10:22:31;5.65;;;2.42;;
25667;SDS011;18003;-33.830;151.202;2023-02-28T10:25:20;6.47;;;2.50;;
25667;SDS011;18003;-33.830;151.202;2023-02-28T10:27:57;10.45;;;3.02;;
25667;SDS011;18003;-33.830;151.202;2023-02-28T10:30:22;8.28;;;3.20;;
25667;SDS011;18003;-33.830;151.202;2023-02-28T10:32:52;7.07;;;2.97;;
25667;SDS011;18003;-33.830;151.202;2023-02-28T10:35:23;5.65;;;2.92;;
25667;SDS011;18003;-33.830;151.202;2023-02-28T10:45:36;7.50;;;3.05;;
25667;SDS011;18003;-33.830;151.202;2023-02-28T10:48:04;7.78;;;2.83;;
25667;SDS011;18003;-33.830;151.202;2023-02-28T10:50:36;10.05;;;3.60;;
25667;SDS011;18003;-33.830;151.202;2023-02-28T10:53:10;8.18;;;3.02;;
25667;SDS011;18003;-33.830;151.202;2023-02-28T10:55:58;6.08;;;2.62;;
25667;SDS011;18003;-33.830;151.202;2023-02-28T10:59:21;6.08;;;2.85;;
25667;SDS011;18003;-33.830;151.202;2023-02-28T11:01:22;5.12;;;2.90;;
25667;SDS011;18003;-33.830;151.202;2023-02-28T11:04:01;7.72;;;3.12;;
25667;SDS011;18003;-33.830;151.202;2023-02-28T11:06:32;7.65;;;3.22;;
25667;SDS011;18003;-33.830;151.202;2023-02-28T11:09:22;8.40;;;3.15;;
25667;SDS011;18003;-33.830;151.202;2023-02-28T11:11:44;8.30;;;3.08;;
25667;SDS011;18003;-33.830;151.202;2023-02-28T11:14:17;8.20;;;3.00;;
25667;SDS011;18003;-33.830;151.202;2023-02-28T11:16:47;5.87;;;2.83;;
25667;SDS011;18003;-33.830;151.202;2023-02-28T11:19:28;6.28;;;2.90;;
25667;SDS011;18003;-33.830;151.202;2023-02-28T11:22:02;6.33;;;3.05;;
25667;SDS011;18003;-33.830;151.202;2023-02-28T11:24:35;8.28;;;2.80;;
25667;SDS011;18003;-33.830;151.202;2023-02-28T11:30:01;5.58;;;2.77;;
25667;SDS011;18003;-33.830;151.202;2023-02-28T11:32:32;7.95;;;3.00;;
25667;SDS011;18003;-33.830;151.202;2023-02-28T11:37:46;7.15;;;2.72;;
25667;SDS011;18003;-33.830;151.202;2023-02-28T11:40:22;6.72;;;3.08;;
25667;SDS011;18003;-33.830;151.202;2023-02-28T11:50:54;7.10;;;3.10;;
25667;SDS011;18003;-33.830;151.202;2023-02-28T11:56:38;7.78;;;3.00;;
25667;SDS011;18003;-33.830;151.202;2023-02-28T12:07:55;9.65;;;3.58;;
25667;SDS011;18003;-33.830;151.202;2023-02-28T12:10:43;8.75;;;3.20;;
25667;SDS011;18003;-33.830;151.202;2023-02-28T12:13:26;10.15;;;3.37;;
25667;SDS011;18003;-33.830;151.202;2023-02-28T12:16:14;7.28;;;3.58;;
25667;SDS011;18003;-33.830;151.202;2023-02-28T12:19:00;6.78;;;3.50;;
25667;SDS011;18003;-33.830;151.202;2023-02-28T12:24:28;6.75;;;3.35;;
25667;SDS011;18003;-33.830;151.202;2023-02-28T12:26:56;10.80;;;3.87;;
25667;SDS011;18003;-33.830;151.202;2023-02-28T12:29:34;7.25;;;3.30;;
25667;SDS011;18003;-33.830;151.202;2023-02-28T12:32:33;8.08;;;3.45;;
25667;SDS011;18003;-33.830;151.202;2023-02-28T12:35:18;11.05;;;3.58;;
25667;SDS011;18003;-33.830;151.202;2023-02-28T12:37:58;10.65;;;3.30;;
25667;SDS011;18003;-33.830;151.202;2023-02-28T12:40:33;8.18;;;3.30;;
25667;SDS011;18003;-33.830;151.202;2023-02-28T12:43:09;7.63;;;3.40;;
25667;SDS011;18003;-33.830;151.202;2023-02-28T12:45:50;7.65;;;3.37;;
25667;SDS011;18003;-33.830;151.202;2023-02-28T12:48:29;8.45;;;3.17;;
25667;SDS011;18003;-33.830;151.202;2023-02-28T12:50:54;7.35;;;3.12;;
25667;SDS011;18003;-33.830;151.202;2023-02-28T12:53:30;8.30;;;3.52;;
25667;SDS011;18003;-33.830;151.202;2023-02-28T12:58:51;8.03;;;3.10;;
25667;SDS011;18003;-33.830;151.202;2023-02-28T13:01:26;7.75;;;3.40;;
25667;SDS011;18003;-33.830;151.202;2023-02-28T13:07:13;6.37;;;3.27;;
25667;SDS011;18003;-33.830;151.202;2023-02-28T13:09:59;7.72;;;3.22;;
25667;SDS011;18003;-33.830;151.202;2023-02-28T13:12:30;8.13;;;3.35;;
25667;SDS011;18003;-33.830;151.202;2023-02-28T13:15:04;6.78;;;3.83;;
25667;SDS011;18003;-33.830;151.202;2023-02-28T13:17:34;9.73;;;3.47;;
25667;SDS011;18003;-33.830;151.202;2023-02-28T13:28:08;8.43;;;3.55;;
25667;SDS011;18003;-33.830;151.202;2023-02-28T13:33:35;6.87;;;3.58;;
25667;SDS011;18003;-33.830;151.202;2023-02-28T13:38:46;6.62;;;3.62;;
25667;SDS011;18003;-33.830;151.202;2023-02-28T14:00:02;7.97;;;3.70;;
25667;SDS011;18003;-33.830;151.202;2023-02-28T14:05:35;9.08;;;3.60;;
25667;SDS011;18003;-33.830;151.202;2023-02-28T14:08:08;8.80;;;3.37;;
25667;SDS011;18003;-33.830;151.202;2023-02-28T14:10:43;9.25;;;3.37;;
25667;SDS011;18003;-33.830;151.202;2023-02-28T14:16:13;9.88;;;4.28;;
25667;SDS011;18003;-33.830;151.202;2023-02-28T14:19:09;7.22;;;3.20;;
25667;SDS011;18003;-33.830;151.202;2023-02-28T14:21:33;11.08;;;3.30;;
25667;SDS011;18003;-33.830;151.202;2023-02-28T14:24:22;7.33;;;3.40;;
25667;SDS011;18003;-33.830;151.202;2023-02-28T14:32:35;9.50;;;3.52;;
25667;SDS011;18003;-33.830;151.202;2023-02-28T14:37:49;7.62;;;3.42;;
25667;SDS011;18003;-33.830;151.202;2023-02-28T14:40:37;10.10;;;3.70;;
25667;SDS011;18003;-33.830;151.202;2023-02-28T14:43:00;8.93;;;3.90;;
25667;SDS011;18003;-33.830;151.202;2023-02-28T14:45:33;6.70;;;3.60;;
25667;SDS011;18003;-33.830;151.202;2023-02-28T14:48:04;6.85;;;3.12;;
25667;SDS011;18003;-33.830;151.202;2023-02-28T14:50:36;8.30;;;3.55;;
25667;SDS011;18003;-33.830;151.202;2023-02-28T14:53:09;7.75;;;3.55;;
25667;SDS011;18003;-33.830;151.202;2023-02-28T14:55:43;4.90;;;3.20;;
25667;SDS011;18003;-33.830;151.202;2023-02-28T14:58:18;9.00;;;3.60;;
25667;SDS011;18003;-33.830;151.202;2023-02-28T15:00:48;7.10;;;3.60;;
25667;SDS011;18003;-33.830;151.202;2023-02-28T15:03:25;10.08;;;3.90;;
25667;SDS011;18003;-33.830;151.202;2023-02-28T15:06:02;9.05;;;3.52;;
25667;SDS011;18003;-33.830;151.202;2023-02-28T15:08:33;10.60;;;3.45;;
25667;SDS011;18003;-33.830;151.202;2023-02-28T15:11:12;8.15;;;3.35;;
25667;SDS011;18003;-33.830;151.202;2023-02-28T15:16:22;9.60;;;3.80;;
25667;SDS011;18003;-33.830;151.202;2023-02-28T15:18:58;7.35;;;2.90;;
25667;SDS011;18003;-33.830;151.202;2023-02-28T15:21:38;8.68;;;3.33;;
25667;SDS011;18003;-33.830;151.202;2023-02-28T15:24:06;5.92;;;3.12;;
25667;SDS011;18003;-33.830;151.202;2023-02-28T15:26:40;7.00;;;3.40;;
25667;SDS011;18003;-33.830;151.202;2023-02-28T15:29:19;7.10;;;3.30;;
25667;SDS011;18003;-33.830;151.202;2023-02-28T15:31:50;9.05;;;3.33;;
25667;SDS011;18003;-33.830;151.202;2023-02-28T15:34:29;5.55;;;3.10;;
25667;SDS011;18003;-33.830;151.202;2023-02-28T15:36:59;7.50;;;3.35;;
25667;SDS011;18003;-33.830;151.202;2023-02-28T15:39:29;5.95;;;3.47;;
25667;SDS011;18003;-33.830;151.202;2023-02-28T15:42:12;7.83;;;3.30;;
25667;SDS011;18003;-33.830;151.202;2023-02-28T15:44:46;5.95;;;3.00;;
25667;SDS011;18003;-33.830;151.202;2023-02-28T15:47:17;7.00;;;3.12;;
25667;SDS011;18003;-33.830;151.202;2023-02-28T15:49:55;6.70;;;3.10;;
25667;SDS011;18003;-33.830;151.202;2023-02-28T15:55:22;8.13;;;3.30;;
25667;SDS011;18003;-33.830;151.202;2023-02-28T15:57:53;7.83;;;3.58;;
25667;SDS011;18003;-33.830;151.202;2023-02-28T16:00:26;6.78;;;3.15;;
25667;SDS011;18003;-33.830;151.202;2023-02-28T16:02:56;7.42;;;3.60;;
25667;SDS011;18003;-33.830;151.202;2023-02-28T16:05:28;8.10;;;3.37;;
25667;SDS011;18003;-33.830;151.202;2023-02-28T16:07:59;10.32;;;3.30;;
25667;SDS011;18003;-33.830;151.202;2023-02-28T16:10:30;5.37;;;3.33;;
25667;SDS011;18003;-33.830;151.202;2023-02-28T16:13:01;10.50;;;3.25;;
25667;SDS011;18003;-33.830;151.202;2023-02-28T16:15:33;7.03;;;3.30;;
25667;SDS011;18003;-33.830;151.202;2023-02-28T16:18:04;9.85;;;3.50;;
25667;SDS011;18003;-33.830;151.202;2023-02-28T16:20:35;7.67;;;3.20;;
25667;SDS011;18003;-33.830;151.202;2023-02-28T16:23:05;9.68;;;3.33;;
25667;SDS011;18003;-33.830;151.202;2023-02-28T16:28:16;7.40;;;3.27;;
25667;SDS011;18003;-33.830;151.202;2023-02-28T16:30:44;7.92;;;3.22;;
25667;SDS011;18003;-33.830;151.202;2023-02-28T16:33:14;6.17;;;3.58;;
25667;SDS011;18003;-33.830;151.202;2023-02-28T16:35:45;5.45;;;2.92;;
25667;SDS011;18003;-33.830;151.202;2023-02-28T16:38:15;7.53;;;3.37;;
25667;SDS011;18003;-33.830;151.202;2023-02-28T16:40:45;9.03;;;3.52;;
25667;SDS011;18003;-33.830;151.202;2023-02-28T16:43:17;8.73;;;3.50;;
25667;SDS011;18003;-33.830;151.202;2023-02-28T16:45:47;9.15;;;3.58;;
25667;SDS011;18003;-33.830;151.202;2023-02-28T16:48:18;7.58;;;3.33;;
25667;SDS011;18003;-33.830;151.202;2023-02-28T16:50:48;7.62;;;3.47;;